sensor_id;sensor_type;location;lat;lon;timestamp;temperature;humidity
65985;HTU21D;52748;51.112;5.880;2023-12-07T00:02:16;16.58;67.53
65985;HTU21D;52748;51.112;5.880;2023-12-07T00:04:42;16.56;67.48
65985;HTU21D;52748;51.112;5.880;2023-12-07T00:07:08;16.56;67.33
65985;HTU21D;52748;51.112;5.880;2023-12-07T00:09:34;16.56;67.20
65985;HTU21D;52748;51.112;5.880;2023-12-07T00:12:00;16.55;67.06
65985;HTU21D;52748;51.112;5.880;2023-12-07T00:14:26;16.55;67.01
65985;HTU21D;52748;51.112;5.880;2023-12-07T00:16:52;16.55;66.91
65985;HTU21D;52748;51.112;5.880;2023-12-07T00:19:18;16.54;66.85
65985;HTU21D;52748;51.112;5.880;2023-12-07T00:21:44;16.54;66.78
65985;HTU21D;52748;51.112;5.880;2023-12-07T00:24:10;16.52;66.71
65985;HTU21D;52748;51.112;5.880;2023-12-07T00:26:36;16.52;66.60
65985;HTU21D;52748;51.112;5.880;2023-12-07T00:29:03;16.54;66.41
65985;HTU21D;52748;51.112;5.880;2023-12-07T00:31:29;16.51;66.51
65985;HTU21D;52748;51.112;5.880;2023-12-07T00:33:55;16.51;66.46
65985;HTU21D;52748;51.112;5.880;2023-12-07T00:36:21;16.50;66.38
65985;HTU21D;52748;51.112;5.880;2023-12-07T00:38:49;16.49;66.30
65985;HTU21D;52748;51.112;5.880;2023-12-07T00:41:15;16.49;66.20
65985;HTU21D;52748;51.112;5.880;2023-12-07T00:43:41;16.50;66.05
65985;HTU21D;52748;51.112;5.880;2023-12-07T00:46:07;16.51;66.00
65985;HTU21D;52748;51.112;5.880;2023-12-07T00:48:33;16.50;65.99
65985;HTU21D;52748;51.112;5.880;2023-12-07T00:50:59;16.47;65.96
65985;HTU21D;52748;51.112;5.880;2023-12-07T00:53:25;16.46;65.90
65985;HTU21D;52748;51.112;5.880;2023-12-07T00:55:51;16.48;65.73
65985;HTU21D;52748;51.112;5.880;2023-12-07T00:58:19;16.46;65.78
65985;HTU21D;52748;51.112;5.880;2023-12-07T01:00:45;16.47;65.74
65985;HTU21D;52748;51.112;5.880;2023-12-07T01:03:11;16.47;65.66
65985;HTU21D;52748;51.112;5.880;2023-12-07T01:05:40;16.46;65.58
65985;HTU21D;52748;51.112;5.880;2023-12-07T01:08:06;16.46;65.51
65985;HTU21D;52748;51.112;5.880;2023-12-07T01:10:32;16.46;65.44
65985;HTU21D;52748;51.112;5.880;2023-12-07T01:12:58;16.45;65.37
65985;HTU21D;52748;51.112;5.880;2023-12-07T01:15:23;16.46;65.33
65985;HTU21D;52748;51.112;5.880;2023-12-07T01:17:49;16.45;65.29
65985;HTU21D;52748;51.112;5.880;2023-12-07T01:20:15;16.44;65.27
65985;HTU21D;52748;51.112;5.880;2023-12-07T01:22:42;16.47;65.05
65985;HTU21D;52748;51.112;5.880;2023-12-07T01:25:09;16.43;65.14
65985;HTU21D;52748;51.112;5.880;2023-12-07T01:27:34;16.44;65.08
65985;HTU21D;52748;51.112;5.880;2023-12-07T01:30:05;16.42;65.13
65985;HTU21D;52748;51.112;5.880;2023-12-07T01:32:31;16.42;65.06
65985;HTU21D;52748;51.112;5.880;2023-12-07T01:34:57;16.42;65.04
65985;HTU21D;52748;51.112;5.880;2023-12-07T01:37:23;16.41;65.00
65985;HTU21D;52748;51.112;5.880;2023-12-07T01:39:49;16.40;65.03
65985;HTU21D;52748;51.112;5.880;2023-12-07T01:42:16;16.39;64.96
65985;HTU21D;52748;51.112;5.880;2023-12-07T01:44:42;16.40;65.01
65985;HTU21D;52748;51.112;5.880;2023-12-07T01:47:08;16.36;65.24
65985;HTU21D;52748;51.112;5.880;2023-12-07T01:49:37;16.36;65.27
65985;HTU21D;52748;51.112;5.880;2023-12-07T01:52:05;16.37;65.19
65985;HTU21D;52748;51.112;5.880;2023-12-07T01:54:32;16.34;65.40
65985;HTU21D;52748;51.112;5.880;2023-12-07T01:56:58;16.32;65.44
65985;HTU21D;52748;51.112;5.880;2023-12-07T01:59:24;16.33;65.39
65985;HTU21D;52748;51.112;5.880;2023-12-07T02:01:51;16.33;65.33
65985;HTU21D;52748;51.112;5.880;2023-12-07T02:04:17;16.33;65.31
65985;HTU21D;52748;51.112;5.880;2023-12-07T02:06:43;16.31;65.29
65985;HTU21D;52748;51.112;5.880;2023-12-07T02:09:09;16.33;65.21
65985;HTU21D;52748;51.112;5.880;2023-12-07T02:11:35;16.33;65.24
65985;HTU21D;52748;51.112;5.880;2023-12-07T02:14:01;16.34;65.09
65985;HTU21D;52748;51.112;5.880;2023-12-07T02:16:43;16.32;65.28
65985;HTU21D;52748;51.112;5.880;2023-12-07T02:22:02;16.31;65.24
65985;HTU21D;52748;51.112;5.880;2023-12-07T02:24:37;16.31;65.20
65985;HTU21D;52748;51.112;5.880;2023-12-07T02:27:03;16.31;65.17
65985;HTU21D;52748;51.112;5.880;2023-12-07T02:29:29;16.32;64.93
65985;HTU21D;52748;51.112;5.880;2023-12-07T02:31:55;16.31;65.11
65985;HTU21D;52748;51.112;5.880;2023-12-07T02:34:21;16.29;65.11
65985;HTU21D;52748;51.112;5.880;2023-12-07T02:36:49;16.31;65.01
65985;HTU21D;52748;51.112;5.880;2023-12-07T02:39:17;16.32;64.92
65985;HTU21D;52748;51.112;5.880;2023-12-07T02:41:46;16.30;65.08
65985;HTU21D;52748;51.112;5.880;2023-12-07T02:44:13;16.29;65.11
65985;HTU21D;52748;51.112;5.880;2023-12-07T02:46:39;16.30;65.02
65985;HTU21D;52748;51.112;5.880;2023-12-07T02:49:05;16.29;65.00
65985;HTU21D;52748;51.112;5.880;2023-12-07T02:51:31;16.28;65.07
65985;HTU21D;52748;51.112;5.880;2023-12-07T02:53:57;16.28;65.03
65985;HTU21D;52748;51.112;5.880;2023-12-07T02:56:25;16.29;64.92
65985;HTU21D;52748;51.112;5.880;2023-12-07T02:58:53;16.27;64.99
65985;HTU21D;52748;51.112;5.880;2023-12-07T03:01:19;16.29;64.82
65985;HTU21D;52748;51.112;5.880;2023-12-07T03:03:45;16.29;64.88
65985;HTU21D;52748;51.112;5.880;2023-12-07T03:06:11;16.27;65.02
65985;HTU21D;52748;51.112;5.880;2023-12-07T03:08:37;16.28;64.88
65985;HTU21D;52748;51.112;5.880;2023-12-07T03:11:03;16.29;64.79
65985;HTU21D;52748;51.112;5.880;2023-12-07T03:13:30;16.27;64.89
65985;HTU21D;52748;51.112;5.880;2023-12-07T03:15:56;16.26;65.00
65985;HTU21D;52748;51.112;5.880;2023-12-07T03:18:22;16.26;64.99
65985;HTU21D;52748;51.112;5.880;2023-12-07T03:20:48;16.25;64.93
65985;HTU21D;52748;51.112;5.880;2023-12-07T03:23:16;16.26;64.85
65985;HTU21D;52748;51.112;5.880;2023-12-07T03:25:42;16.26;64.74
65985;HTU21D;52748;51.112;5.880;2023-12-07T03:28:07;16.25;64.76
65985;HTU21D;52748;51.112;5.880;2023-12-07T03:30:33;16.24;64.74
65985;HTU21D;52748;51.112;5.880;2023-12-07T03:32:59;16.25;64.61
65985;HTU21D;52748;51.112;5.880;2023-12-07T03:35:25;16.26;64.63
65985;HTU21D;52748;51.112;5.880;2023-12-07T03:37:53;16.27;64.63
65985;HTU21D;52748;51.112;5.880;2023-12-07T03:40:19;16.24;64.71
65985;HTU21D;52748;51.112;5.880;2023-12-07T03:42:45;16.25;64.60
65985;HTU21D;52748;51.112;5.880;2023-12-07T03:45:11;16.24;64.65
65985;HTU21D;52748;51.112;5.880;2023-12-07T03:47:37;16.27;64.45
65985;HTU21D;52748;51.112;5.880;2023-12-07T03:50:03;16.25;64.53
65985;HTU21D;52748;51.112;5.880;2023-12-07T03:52:29;16.26;64.37
65985;HTU21D;52748;51.112;5.880;2023-12-07T03:54:55;16.24;64.56
65985;HTU21D;52748;51.112;5.880;2023-12-07T03:57:21;16.25;64.39
65985;HTU21D;52748;51.112;5.880;2023-12-07T03:59:47;16.21;64.44
65985;HTU21D;52748;51.112;5.880;2023-12-07T04:02:13;16.24;64.28
65985;HTU21D;52748;51.112;5.880;2023-12-07T04:04:39;16.24;64.23
65985;HTU21D;52748;51.112;5.880;2023-12-07T04:07:04;16.21;64.43
65985;HTU21D;52748;51.112;5.880;2023-12-07T04:09:30;16.20;64.47
65985;HTU21D;52748;51.112;5.880;2023-12-07T04:11:56;16.21;64.34
65985;HTU21D;52748;51.112;5.880;2023-12-07T04:14:22;16.22;64.21
65985;HTU21D;52748;51.112;5.880;2023-12-07T04:16:48;16.21;64.30
65985;HTU21D;52748;51.112;5.880;2023-12-07T04:19:14;16.18;64.49
65985;HTU21D;52748;51.112;5.880;2023-12-07T04:21:40;16.19;64.38
65985;HTU21D;52748;51.112;5.880;2023-12-07T04:24:05;16.20;64.26
65985;HTU21D;52748;51.112;5.880;2023-12-07T04:26:31;16.21;64.18
65985;HTU21D;52748;51.112;5.880;2023-12-07T04:28:57;16.18;64.41
65985;HTU21D;52748;51.112;5.880;2023-12-07T04:31:23;16.17;64.37
65985;HTU21D;52748;51.112;5.880;2023-12-07T04:33:49;16.17;64.32
65985;HTU21D;52748;51.112;5.880;2023-12-07T04:36:18;16.17;64.29
65985;HTU21D;52748;51.112;5.880;2023-12-07T04:38:44;16.19;64.13
65985;HTU21D;52748;51.112;5.880;2023-12-07T04:41:14;16.18;64.27
65985;HTU21D;52748;51.112;5.880;2023-12-07T04:43:40;16.17;64.29
65985;HTU21D;52748;51.112;5.880;2023-12-07T04:46:06;16.18;64.29
65985;HTU21D;52748;51.112;5.880;2023-12-07T04:48:32;16.17;64.24
65985;HTU21D;52748;51.112;5.880;2023-12-07T04:50:58;16.19;64.08
65985;HTU21D;52748;51.112;5.880;2023-12-07T04:53:23;16.17;64.26
65985;HTU21D;52748;51.112;5.880;2023-12-07T04:55:50;16.16;64.26
65985;HTU21D;52748;51.112;5.880;2023-12-07T04:58:16;16.16;64.32
65985;HTU21D;52748;51.112;5.880;2023-12-07T05:00:42;16.18;64.01
65985;HTU21D;52748;51.112;5.880;2023-12-07T05:03:08;16.17;63.98
65985;HTU21D;52748;51.112;5.880;2023-12-07T05:05:34;16.15;64.17
65985;HTU21D;52748;51.112;5.880;2023-12-07T05:07:59;16.15;64.11
65985;HTU21D;52748;51.112;5.880;2023-12-07T05:10:25;16.13;64.18
65985;HTU21D;52748;51.112;5.880;2023-12-07T05:12:51;16.14;64.08
65985;HTU21D;52748;51.112;5.880;2023-12-07T05:15:17;16.13;64.29
65985;HTU21D;52748;51.112;5.880;2023-12-07T05:17:43;16.11;64.24
65985;HTU21D;52748;51.112;5.880;2023-12-07T05:20:10;16.11;64.18
65985;HTU21D;52748;51.112;5.880;2023-12-07T05:22:38;16.13;63.99
65985;HTU21D;52748;51.112;5.880;2023-12-07T05:25:04;16.14;63.92
65985;HTU21D;52748;51.112;5.880;2023-12-07T05:27:30;16.12;63.90
65985;HTU21D;52748;51.112;5.880;2023-12-07T05:29:59;16.11;64.15
65985;HTU21D;52748;51.112;5.880;2023-12-07T05:32:25;16.13;63.98
65985;HTU21D;52748;51.112;5.880;2023-12-07T05:34:51;16.12;63.99
65985;HTU21D;52748;51.112;5.880;2023-12-07T05:37:17;16.10;64.21
65985;HTU21D;52748;51.112;5.880;2023-12-07T05:39:42;16.08;64.18
65985;HTU21D;52748;51.112;5.880;2023-12-07T05:42:08;16.12;63.96
65985;HTU21D;52748;51.112;5.880;2023-12-07T05:44:34;16.12;63.92
65985;HTU21D;52748;51.112;5.880;2023-12-07T05:47:00;16.12;64.03
65985;HTU21D;52748;51.112;5.880;2023-12-07T05:49:26;16.07;64.34
65985;HTU21D;52748;51.112;5.880;2023-12-07T05:51:52;16.07;64.43
65985;HTU21D;52748;51.112;5.880;2023-12-07T05:54:18;16.06;64.49
65985;HTU21D;52748;51.112;5.880;2023-12-07T05:56:46;16.08;64.48
65985;HTU21D;52748;51.112;5.880;2023-12-07T05:59:12;16.07;64.63
65985;HTU21D;52748;51.112;5.880;2023-12-07T06:01:38;16.07;64.67
65985;HTU21D;52748;51.112;5.880;2023-12-07T06:04:04;16.07;64.72
65985;HTU21D;52748;51.112;5.880;2023-12-07T06:06:33;16.10;64.66
65985;HTU21D;52748;51.112;5.880;2023-12-07T06:08:59;16.07;64.88
65985;HTU21D;52748;51.112;5.880;2023-12-07T06:11:25;16.08;64.99
65985;HTU21D;52748;51.112;5.880;2023-12-07T06:13:51;16.08;65.04
65985;HTU21D;52748;51.112;5.880;2023-12-07T06:16:16;16.10;65.08
65985;HTU21D;52748;51.112;5.880;2023-12-07T06:18:44;16.12;65.17
65985;HTU21D;52748;51.112;5.880;2023-12-07T06:21:10;16.15;65.30
65985;HTU21D;52748;51.112;5.880;2023-12-07T06:23:36;16.16;65.47
65985;HTU21D;52748;51.112;5.880;2023-12-07T06:26:02;16.18;65.89
65985;HTU21D;52748;51.112;5.880;2023-12-07T06:28:34;16.21;66.44
65985;HTU21D;52748;51.112;5.880;2023-12-07T06:31:05;16.25;67.46
65985;HTU21D;52748;51.112;5.880;2023-12-07T06:33:31;16.29;67.61
65985;HTU21D;52748;51.112;5.880;2023-12-07T06:35:57;16.30;68.17
65985;HTU21D;52748;51.112;5.880;2023-12-07T06:38:23;16.33;68.69
65985;HTU21D;52748;51.112;5.880;2023-12-07T06:40:49;16.34;68.82
65985;HTU21D;52748;51.112;5.880;2023-12-07T06:43:15;16.34;69.10
65985;HTU21D;52748;51.112;5.880;2023-12-07T06:45:41;16.36;69.13
65985;HTU21D;52748;51.112;5.880;2023-12-07T06:48:10;16.39;69.45
65985;HTU21D;52748;51.112;5.880;2023-12-07T06:50:37;16.39;69.89
65985;HTU21D;52748;51.112;5.880;2023-12-07T06:53:03;16.41;70.32
65985;HTU21D;52748;51.112;5.880;2023-12-07T06:55:29;16.42;70.84
65985;HTU21D;52748;51.112;5.880;2023-12-07T06:57:55;16.43;70.72
65985;HTU21D;52748;51.112;5.880;2023-12-07T07:00:21;16.36;65.42
65985;HTU21D;52748;51.112;5.880;2023-12-07T07:02:47;16.33;64.11
65985;HTU21D;52748;51.112;5.880;2023-12-07T07:05:13;16.33;63.31
65985;HTU21D;52748;51.112;5.880;2023-12-07T07:07:39;16.24;57.85
65985;HTU21D;52748;51.112;5.880;2023-12-07T07:10:05;16.00;59.33
65985;HTU21D;52748;51.112;5.880;2023-12-07T07:12:31;15.97;64.27
65985;HTU21D;52748;51.112;5.880;2023-12-07T07:14:57;16.04;67.15
65985;HTU21D;52748;51.112;5.880;2023-12-07T07:17:23;16.12;68.71
65985;HTU21D;52748;51.112;5.880;2023-12-07T07:19:49;16.19;69.13
65985;HTU21D;52748;51.112;5.880;2023-12-07T07:22:15;16.24;69.33
65985;HTU21D;52748;51.112;5.880;2023-12-07T07:24:40;16.29;69.23
65985;HTU21D;52748;51.112;5.880;2023-12-07T07:27:06;16.32;69.15
65985;HTU21D;52748;51.112;5.880;2023-12-07T07:29:32;16.34;69.02
65985;HTU21D;52748;51.112;5.880;2023-12-07T07:31:58;16.37;68.87
65985;HTU21D;52748;51.112;5.880;2023-12-07T07:34:24;16.41;68.64
65985;HTU21D;52748;51.112;5.880;2023-12-07T07:36:50;16.43;68.31
65985;HTU21D;52748;51.112;5.880;2023-12-07T07:39:16;16.46;67.86
65985;HTU21D;52748;51.112;5.880;2023-12-07T07:41:42;16.47;67.75
65985;HTU21D;52748;51.112;5.880;2023-12-07T07:44:08;16.47;67.47
65985;HTU21D;52748;51.112;5.880;2023-12-07T07:46:34;16.50;67.07
65985;HTU21D;52748;51.112;5.880;2023-12-07T07:49:00;16.48;67.06
65985;HTU21D;52748;51.112;5.880;2023-12-07T07:51:26;16.49;66.85
65985;HTU21D;52748;51.112;5.880;2023-12-07T07:53:52;16.49;66.63
65985;HTU21D;52748;51.112;5.880;2023-12-07T07:56:18;16.51;66.49
65985;HTU21D;52748;51.112;5.880;2023-12-07T07:58:43;16.55;66.98
65985;HTU21D;52748;51.112;5.880;2023-12-07T08:01:10;16.58;67.86
65985;HTU21D;52748;51.112;5.880;2023-12-07T08:03:35;16.60;68.99
65985;HTU21D;52748;51.112;5.880;2023-12-07T08:06:01;16.63;69.44
65985;HTU21D;52748;51.112;5.880;2023-12-07T08:08:27;16.62;69.68
65985;HTU21D;52748;51.112;5.880;2023-12-07T08:10:53;16.65;69.88
65985;HTU21D;52748;51.112;5.880;2023-12-07T08:13:19;16.65;70.07
65985;HTU21D;52748;51.112;5.880;2023-12-07T08:15:45;16.66;70.10
65985;HTU21D;52748;51.112;5.880;2023-12-07T08:18:10;16.66;70.18
65985;HTU21D;52748;51.112;5.880;2023-12-07T08:20:36;16.67;70.21
65985;HTU21D;52748;51.112;5.880;2023-12-07T08:23:03;16.71;70.11
65985;HTU21D;52748;51.112;5.880;2023-12-07T08:25:29;16.74;70.08
65985;HTU21D;52748;51.112;5.880;2023-12-07T08:27:55;16.72;70.28
65985;HTU21D;52748;51.112;5.880;2023-12-07T08:30:20;16.73;70.09
65985;HTU21D;52748;51.112;5.880;2023-12-07T08:32:46;16.72;70.26
65985;HTU21D;52748;51.112;5.880;2023-12-07T08:35:12;16.72;70.31
65985;HTU21D;52748;51.112;5.880;2023-12-07T08:37:38;16.73;70.28
65985;HTU21D;52748;51.112;5.880;2023-12-07T08:40:07;16.74;70.28
65985;HTU21D;52748;51.112;5.880;2023-12-07T08:42:33;16.77;70.07
65985;HTU21D;52748;51.112;5.880;2023-12-07T08:44:59;16.77;70.10
65985;HTU21D;52748;51.112;5.880;2023-12-07T08:47:24;16.79;70.17
65985;HTU21D;52748;51.112;5.880;2023-12-07T08:49:53;16.77;70.42
65985;HTU21D;52748;51.112;5.880;2023-12-07T08:52:19;16.77;70.39
65985;HTU21D;52748;51.112;5.880;2023-12-07T08:54:44;16.80;70.23
65985;HTU21D;52748;51.112;5.880;2023-12-07T08:57:10;16.79;70.30
65985;HTU21D;52748;51.112;5.880;2023-12-07T08:59:36;16.72;62.89
65985;HTU21D;52748;51.112;5.880;2023-12-07T09:02:02;16.55;64.07
65985;HTU21D;52748;51.112;5.880;2023-12-07T09:04:27;16.49;65.53
65985;HTU21D;52748;51.112;5.880;2023-12-07T09:06:53;16.49;63.48
65985;HTU21D;52748;51.112;5.880;2023-12-07T09:09:20;16.39;62.53
65985;HTU21D;52748;51.112;5.880;2023-12-07T09:11:46;16.26;62.76
65985;HTU21D;52748;51.112;5.880;2023-12-07T09:14:12;16.13;63.39
65985;HTU21D;52748;51.112;5.880;2023-12-07T09:16:44;15.99;64.48
65985;HTU21D;52748;51.112;5.880;2023-12-07T09:19:11;15.89;65.24
65985;HTU21D;52748;51.112;5.880;2023-12-07T09:21:38;15.84;65.83
65985;HTU21D;52748;51.112;5.880;2023-12-07T09:24:04;15.83;66.12
65985;HTU21D;52748;51.112;5.880;2023-12-07T09:26:32;15.91;66.38
65985;HTU21D;52748;51.112;5.880;2023-12-07T09:28:58;16.02;66.98
65985;HTU21D;52748;51.112;5.880;2023-12-07T09:31:26;16.14;67.31
65985;HTU21D;52748;51.112;5.880;2023-12-07T09:33:53;16.24;67.49
65985;HTU21D;52748;51.112;5.880;2023-12-07T09:36:23;16.32;67.55
65985;HTU21D;52748;51.112;5.880;2023-12-07T09:38:49;16.40;67.57
65985;HTU21D;52748;51.112;5.880;2023-12-07T09:41:16;16.47;67.48
65985;HTU21D;52748;51.112;5.880;2023-12-07T09:43:42;16.52;67.88
65985;HTU21D;52748;51.112;5.880;2023-12-07T09:46:08;16.58;68.23
65985;HTU21D;52748;51.112;5.880;2023-12-07T09:48:37;16.62;68.11
65985;HTU21D;52748;51.112;5.880;2023-12-07T09:51:07;16.66;67.51
65985;HTU21D;52748;51.112;5.880;2023-12-07T09:53:33;16.72;67.05
65985;HTU21D;52748;51.112;5.880;2023-12-07T09:56:00;16.74;67.55
65985;HTU21D;52748;51.112;5.880;2023-12-07T09:58:26;16.76;67.58
65985;HTU21D;52748;51.112;5.880;2023-12-07T10:00:52;16.77;67.47
65985;HTU21D;52748;51.112;5.880;2023-12-07T10:03:23;16.79;67.63
65985;HTU21D;52748;51.112;5.880;2023-12-07T10:05:59;16.81;67.50
65985;HTU21D;52748;51.112;5.880;2023-12-07T10:08:30;16.82;67.42
65985;HTU21D;52748;51.112;5.880;2023-12-07T10:11:06;16.85;67.17
65985;HTU21D;52748;51.112;5.880;2023-12-07T10:13:34;16.84;66.82
65985;HTU21D;52748;51.112;5.880;2023-12-07T10:16:13;16.85;67.23
65985;HTU21D;52748;51.112;5.880;2023-12-07T10:18:43;16.85;67.16
65985;HTU21D;52748;51.112;5.880;2023-12-07T10:21:14;16.84;67.61
65985;HTU21D;52748;51.112;5.880;2023-12-07T10:23:41;16.82;67.81
65985;HTU21D;52748;51.112;5.880;2023-12-07T10:26:13;16.82;68.02
65985;HTU21D;52748;51.112;5.880;2023-12-07T10:28:39;16.81;68.17
65985;HTU21D;52748;51.112;5.880;2023-12-07T10:31:08;16.84;68.29
65985;HTU21D;52748;51.112;5.880;2023-12-07T10:33:35;16.80;68.25
65985;HTU21D;52748;51.112;5.880;2023-12-07T10:36:03;16.80;68.34
65985;HTU21D;52748;51.112;5.880;2023-12-07T10:38:29;16.80;68.43
65985;HTU21D;52748;51.112;5.880;2023-12-07T10:41:05;16.80;68.85
65985;HTU21D;52748;51.112;5.880;2023-12-07T10:43:43;16.79;69.04
65985;HTU21D;52748;51.112;5.880;2023-12-07T10:46:14;16.81;69.70
65985;HTU21D;52748;51.112;5.880;2023-12-07T10:48:44;16.84;70.08
65985;HTU21D;52748;51.112;5.880;2023-12-07T10:51:28;16.86;70.43
65985;HTU21D;52748;51.112;5.880;2023-12-07T10:54:04;16.87;70.69
65985;HTU21D;52748;51.112;5.880;2023-12-07T10:56:48;16.89;70.95
65985;HTU21D;52748;51.112;5.880;2023-12-07T10:59:18;16.91;71.32
65985;HTU21D;52748;51.112;5.880;2023-12-07T11:01:46;16.93;71.58
65985;HTU21D;52748;51.112;5.880;2023-12-07T11:04:13;16.94;71.75
65985;HTU21D;52748;51.112;5.880;2023-12-07T11:06:40;16.96;71.95
65985;HTU21D;52748;51.112;5.880;2023-12-07T11:09:10;16.98;72.19
65985;HTU21D;52748;51.112;5.880;2023-12-07T11:11:43;16.99;72.43
65985;HTU21D;52748;51.112;5.880;2023-12-07T11:14:13;17.01;72.64
65985;HTU21D;52748;51.112;5.880;2023-12-07T11:16:42;17.02;72.77
65985;HTU21D;52748;51.112;5.880;2023-12-07T11:19:43;17.01;73.19
65985;HTU21D;52748;51.112;5.880;2023-12-07T11:22:13;17.04;73.19
65985;HTU21D;52748;51.112;5.880;2023-12-07T11:24:53;17.04;73.42
65985;HTU21D;52748;51.112;5.880;2023-12-07T11:27:20;17.06;73.58
65985;HTU21D;52748;51.112;5.880;2023-12-07T11:29:47;17.05;73.90
65985;HTU21D;52748;51.112;5.880;2023-12-07T11:32:16;17.08;73.89
65985;HTU21D;52748;51.112;5.880;2023-12-07T11:34:43;17.08;74.28
65985;HTU21D;52748;51.112;5.880;2023-12-07T11:37:11;17.08;74.31
65985;HTU21D;52748;51.112;5.880;2023-12-07T11:39:39;17.11;74.25
65985;HTU21D;52748;51.112;5.880;2023-12-07T11:42:19;17.09;74.44
65985;HTU21D;52748;51.112;5.880;2023-12-07T11:44:48;17.10;74.35
65985;HTU21D;52748;51.112;5.880;2023-12-07T11:47:20;17.11;74.40
65985;HTU21D;52748;51.112;5.880;2023-12-07T11:49:47;17.11;74.40
65985;HTU21D;52748;51.112;5.880;2023-12-07T11:52:17;17.14;74.38
65985;HTU21D;52748;51.112;5.880;2023-12-07T11:54:48;17.13;74.38
65985;HTU21D;52748;51.112;5.880;2023-12-07T11:57:16;17.15;74.44
65985;HTU21D;52748;51.112;5.880;2023-12-07T11:59:46;17.17;74.29
65985;HTU21D;52748;51.112;5.880;2023-12-07T12:02:15;17.17;74.31
65985;HTU21D;52748;51.112;5.880;2023-12-07T12:04:41;17.16;74.51
65985;HTU21D;52748;51.112;5.880;2023-12-07T12:07:07;17.18;74.43
65985;HTU21D;52748;51.112;5.880;2023-12-07T12:09:33;17.18;74.34
65985;HTU21D;52748;51.112;5.880;2023-12-07T12:12:00;17.19;74.31
65985;HTU21D;52748;51.112;5.880;2023-12-07T12:14:27;17.20;74.13
65985;HTU21D;52748;51.112;5.880;2023-12-07T12:16:54;17.20;74.13
65985;HTU21D;52748;51.112;5.880;2023-12-07T12:19:22;17.20;74.08
65985;HTU21D;52748;51.112;5.880;2023-12-07T12:21:49;17.20;74.02
65985;HTU21D;52748;51.112;5.880;2023-12-07T12:24:15;17.21;73.93
65985;HTU21D;52748;51.112;5.880;2023-12-07T12:26:43;17.23;73.65
65985;HTU21D;52748;51.112;5.880;2023-12-07T12:29:10;17.24;73.57
65985;HTU21D;52748;51.112;5.880;2023-12-07T12:31:38;17.23;73.66
65985;HTU21D;52748;51.112;5.880;2023-12-07T12:34:07;17.23;73.48
65985;HTU21D;52748;51.112;5.880;2023-12-07T12:36:37;17.20;73.22
65985;HTU21D;52748;51.112;5.880;2023-12-07T12:39:03;17.18;73.08
65985;HTU21D;52748;51.112;5.880;2023-12-07T12:41:34;17.22;72.76
65985;HTU21D;52748;51.112;5.880;2023-12-07T12:44:00;17.20;72.77
65985;HTU21D;52748;51.112;5.880;2023-12-07T12:46:25;17.18;72.72
65985;HTU21D;52748;51.112;5.880;2023-12-07T12:48:59;17.19;72.51
65985;HTU21D;52748;51.112;5.880;2023-12-07T12:51:27;17.18;72.16
65985;HTU21D;52748;51.112;5.880;2023-12-07T12:53:54;17.18;71.92
65985;HTU21D;52748;51.112;5.880;2023-12-07T12:56:22;17.14;71.93
65985;HTU21D;52748;51.112;5.880;2023-12-07T12:58:53;17.13;71.74
65985;HTU21D;52748;51.112;5.880;2023-12-07T13:01:19;17.10;71.41
65985;HTU21D;52748;51.112;5.880;2023-12-07T13:03:46;17.11;69.36
65985;HTU21D;52748;51.112;5.880;2023-12-07T13:06:14;17.06;67.27
65985;HTU21D;52748;51.112;5.880;2023-12-07T13:08:43;17.02;69.15
65985;HTU21D;52748;51.112;5.880;2023-12-07T13:11:15;17.01;69.95
65985;HTU21D;52748;51.112;5.880;2023-12-07T13:13:41;17.01;70.49
65985;HTU21D;52748;51.112;5.880;2023-12-07T13:16:07;17.03;70.68
65985;HTU21D;52748;51.112;5.880;2023-12-07T13:18:33;17.02;71.13
65985;HTU21D;52748;51.112;5.880;2023-12-07T13:20:59;17.05;71.40
65985;HTU21D;52748;51.112;5.880;2023-12-07T13:23:27;17.06;71.58
65985;HTU21D;52748;51.112;5.880;2023-12-07T13:25:53;17.09;71.97
65985;HTU21D;52748;51.112;5.880;2023-12-07T13:28:19;17.13;72.22
65985;HTU21D;52748;51.112;5.880;2023-12-07T13:30:45;17.15;69.13
65985;HTU21D;52748;51.112;5.880;2023-12-07T13:33:11;17.06;67.94
65985;HTU21D;52748;51.112;5.880;2023-12-07T13:35:37;17.01;67.63
65985;HTU21D;52748;51.112;5.880;2023-12-07T13:38:03;16.96;67.65
65985;HTU21D;52748;51.112;5.880;2023-12-07T13:40:30;16.92;67.73
65985;HTU21D;52748;51.112;5.880;2023-12-07T13:42:56;16.91;67.83
65985;HTU21D;52748;51.112;5.880;2023-12-07T13:45:22;16.90;66.72
65985;HTU21D;52748;51.112;5.880;2023-12-07T13:47:47;16.90;67.37
65985;HTU21D;52748;51.112;5.880;2023-12-07T13:50:13;16.90;67.78
65985;HTU21D;52748;51.112;5.880;2023-12-07T13:52:40;16.90;67.97
65985;HTU21D;52748;51.112;5.880;2023-12-07T13:55:06;16.92;68.01
65985;HTU21D;52748;51.112;5.880;2023-12-07T13:57:32;16.90;68.33
65985;HTU21D;52748;51.112;5.880;2023-12-07T13:59:57;16.91;68.46
65985;HTU21D;52748;51.112;5.880;2023-12-07T14:02:23;16.92;68.57
65985;HTU21D;52748;51.112;5.880;2023-12-07T14:04:50;16.95;68.49
65985;HTU21D;52748;51.112;5.880;2023-12-07T14:07:18;16.94;68.18
65985;HTU21D;52748;51.112;5.880;2023-12-07T14:09:47;16.94;67.35
65985;HTU21D;52748;51.112;5.880;2023-12-07T14:12:13;16.99;67.79
65985;HTU21D;52748;51.112;5.880;2023-12-07T14:14:44;17.05;69.02
65985;HTU21D;52748;51.112;5.880;2023-12-07T14:17:14;17.08;70.54
65985;HTU21D;52748;51.112;5.880;2023-12-07T14:19:41;17.10;71.32
65985;HTU21D;52748;51.112;5.880;2023-12-07T14:22:09;17.16;71.80
65985;HTU21D;52748;51.112;5.880;2023-12-07T14:24:36;17.20;72.18
65985;HTU21D;52748;51.112;5.880;2023-12-07T14:27:04;17.24;72.36
65985;HTU21D;52748;51.112;5.880;2023-12-07T14:29:30;17.29;72.67
65985;HTU21D;52748;51.112;5.880;2023-12-07T14:31:58;17.31;72.79
65985;HTU21D;52748;51.112;5.880;2023-12-07T14:34:25;17.36;72.94
65985;HTU21D;52748;51.112;5.880;2023-12-07T14:36:53;17.35;73.41
65985;HTU21D;52748;51.112;5.880;2023-12-07T14:39:19;17.38;73.56
65985;HTU21D;52748;51.112;5.880;2023-12-07T14:41:46;17.36;70.30
65985;HTU21D;52748;51.112;5.880;2023-12-07T14:44:14;17.22;64.87
65985;HTU21D;52748;51.112;5.880;2023-12-07T14:46:45;17.10;64.88
65985;HTU21D;52748;51.112;5.880;2023-12-07T14:49:12;17.07;65.40
65985;HTU21D;52748;51.112;5.880;2023-12-07T14:51:39;17.10;65.82
65985;HTU21D;52748;51.112;5.880;2023-12-07T14:54:06;17.10;66.20
65985;HTU21D;52748;51.112;5.880;2023-12-07T14:56:33;17.14;66.26
65985;HTU21D;52748;51.112;5.880;2023-12-07T14:59:02;17.15;66.36
65985;HTU21D;52748;51.112;5.880;2023-12-07T15:01:28;17.14;66.54
65985;HTU21D;52748;51.112;5.880;2023-12-07T15:03:56;17.15;66.50
65985;HTU21D;52748;51.112;5.880;2023-12-07T15:06:22;17.16;66.52
65985;HTU21D;52748;51.112;5.880;2023-12-07T15:08:47;17.18;66.53
65985;HTU21D;52748;51.112;5.880;2023-12-07T15:11:14;17.17;66.70
65985;HTU21D;52748;51.112;5.880;2023-12-07T15:13:39;17.17;66.70
65985;HTU21D;52748;51.112;5.880;2023-12-07T15:16:06;17.17;66.86
65985;HTU21D;52748;51.112;5.880;2023-12-07T15:18:32;17.18;66.97